Forest Row, United Kingdom
Current Conditions -  °F | °C
As of 4:20 AM on Thursday 29 Jan 2015 (Local Time) from EGKK Reporting Station
Clear Clear  
Wind Chill: 28°   Ceiling: Unl
Heat Index: 36°   Visibility: 6mi
Dew Point: 32°   Wind: 10mph
Humidity: 87%   Direction: 230°SW
Pressure: 29.38"   Gusts: NA
Location:  51.1°N, 0.03°E
Report Text: EGKK 290420Z 23009KT CAVOK 02/M00 Q0995
Loading
Personal Weather Stations






























Interactive Weather Map New forecast layout! Learn more

10-Day Weather Forecast

Advertisements
Track Severe Weather on mobile